createdAt,value
2022-09-07T00:00:24.802Z,1.00
2022-09-07T00:03:32.536Z,1.45
2022-09-07T00:06:43.081Z,1.02
2022-09-07T00:09:49.210Z,1.08
2022-09-07T00:12:57.665Z,1.20
2022-09-07T00:16:11.957Z,1.00
2022-09-07T00:19:24.004Z,1.20
2022-09-07T00:22:29.167Z,0.80
2022-09-07T00:25:38.194Z,0.90
2022-09-07T00:28:47.599Z,1.10
2022-09-07T00:31:59.236Z,1.13
2022-09-07T00:35:09.349Z,1.02
2022-09-07T00:38:13.869Z,1.02
2022-09-07T00:41:26.712Z,1.15
2022-09-07T00:45:03.149Z,0.90
2022-09-07T00:48:23.413Z,0.80
2022-09-07T00:51:34.993Z,1.30
2022-09-07T00:54:46.827Z,1.00
2022-09-07T00:58:00.704Z,0.93
2022-09-07T01:01:18.546Z,0.82
2022-09-07T01:04:34.460Z,0.80
2022-09-07T01:07:45.523Z,0.90
2022-09-07T01:11:04.523Z,1.10
2022-09-07T01:14:31.031Z,1.10
2022-09-07T01:17:51.469Z,1.10
2022-09-07T01:21:25.439Z,1.00
2022-09-07T01:24:46.180Z,1.08
2022-09-07T01:28:15.281Z,1.00
2022-09-07T01:31:32.652Z,1.20
2022-09-07T01:34:41.236Z,1.30
2022-09-07T01:37:57.033Z,1.20
2022-09-07T01:41:14.714Z,1.13
2022-09-07T01:44:34.987Z,1.15
2022-09-07T01:47:49.529Z,1.20
2022-09-07T01:51:03.143Z,1.25
2022-09-07T01:54:15.760Z,1.20
2022-09-07T01:57:26.107Z,1.30
2022-09-07T02:00:39.045Z,1.30
2022-09-07T02:03:48.725Z,1.08
2022-09-07T02:07:03.770Z,0.95
2022-09-07T02:10:14.611Z,1.00
2022-09-07T02:13:26.151Z,0.90
2022-09-07T02:16:42.450Z,1.23
2022-09-07T02:19:58.121Z,1.20
2022-09-07T02:23:09.943Z,1.15
2022-09-07T02:26:28.760Z,1.25
2022-09-07T02:29:41.195Z,1.33
2022-09-07T02:32:54.215Z,1.05
2022-09-07T02:36:02.431Z,1.23
2022-09-07T02:39:12.259Z,1.08
2022-09-07T02:42:20.611Z,1.48
2022-09-07T02:45:32.807Z,1.48
2022-09-07T02:48:54.531Z,1.98
2022-09-07T02:52:19.095Z,1.73
2022-09-07T02:55:40.175Z,1.25
2022-09-07T02:59:02.607Z,1.50
2022-09-07T03:02:18.425Z,1.20
2022-09-07T03:05:33.257Z,1.40
2022-09-07T03:08:46.594Z,1.38
2022-09-07T03:11:55.713Z,1.35
2022-09-07T03:15:05.211Z,1.45
2022-09-07T03:18:12.797Z,1.38
2022-09-07T03:21:22.951Z,1.20
2022-09-07T03:24:29.704Z,1.50
2022-09-07T03:27:36.192Z,1.83
2022-09-07T03:30:47.535Z,1.58
2022-09-07T03:34:03.170Z,1.40
2022-09-07T03:37:16.013Z,1.70
2022-09-07T03:40:23.363Z,1.70
2022-09-07T03:43:32.863Z,1.50
2022-09-07T03:46:45.209Z,1.48
2022-09-07T03:49:53.470Z,1.40
2022-09-07T03:53:03.880Z,1.38
2022-09-07T03:56:16.640Z,1.40
2022-09-07T03:59:25.403Z,1.38
2022-09-07T04:02:34.359Z,1.63
2022-09-07T04:05:41.589Z,1.38
2022-09-07T04:08:50.720Z,1.40
2022-09-07T04:12:01.912Z,1.33
2022-09-07T04:15:08.627Z,1.83
2022-09-07T04:18:20.211Z,1.30
2022-09-07T04:21:34.526Z,1.67
2022-09-07T04:24:43.600Z,1.55
2022-09-07T04:27:53.436Z,1.20
2022-09-07T04:31:05.541Z,1.25
2022-09-07T04:34:12.583Z,1.50
2022-09-07T04:37:19.991Z,1.38
2022-09-07T04:40:31.573Z,1.98
2022-09-07T04:43:42.330Z,1.58
2022-09-07T04:46:52.600Z,1.88
2022-09-07T04:49:57.619Z,1.80
2022-09-07T04:53:03.376Z,1.70
2022-09-07T04:56:15.021Z,1.50
2022-09-07T04:59:33.346Z,1.45
2022-09-07T05:02:52.892Z,1.77
2022-09-07T05:06:30.376Z,1.98
2022-09-07T05:09:50.100Z,1.65
2022-09-07T05:13:08.428Z,1.50
2022-09-07T05:16:16.398Z,1.40
2022-09-07T05:19:24.103Z,1.98
2022-09-07T05:22:31.381Z,1.70
2022-09-07T05:25:48.006Z,2.10
2022-09-07T05:32:30.712Z,1.67
2022-09-07T05:35:39.203Z,1.80
2022-09-07T05:38:51.296Z,1.88
2022-09-07T05:42:12.442Z,1.75
2022-09-07T05:45:22.574Z,1.70
2022-09-07T05:48:33.007Z,1.52
2022-09-07T05:51:47.493Z,1.55
2022-09-07T05:55:30.775Z,1.80
2022-09-07T05:58:43.593Z,1.50
2022-09-07T06:02:05.679Z,1.95
2022-09-07T06:05:15.006Z,2.00
2022-09-07T06:08:23.155Z,1.95
2022-09-07T06:11:36.452Z,1.70
2022-09-07T06:14:51.458Z,1.48
2022-09-07T06:18:21.034Z,1.80
2022-09-07T06:21:31.629Z,1.70
2022-09-07T06:24:41.686Z,1.63
2022-09-07T06:27:54.399Z,1.52
2022-09-07T06:39:13.236Z,1.70
2022-09-07T06:42:59.565Z,1.50
2022-09-07T06:58:11.338Z,1.70
2022-09-07T07:05:51.031Z,1.42
2022-09-07T07:09:31.338Z,1.20
2022-09-07T07:13:06.378Z,1.33
2022-09-07T07:16:28.549Z,1.60
2022-09-07T07:19:38.525Z,1.25
2022-09-07T07:22:47.351Z,1.40
2022-09-07T07:25:54.841Z,1.27
2022-09-07T07:29:03.967Z,1.33
2022-09-07T07:32:12.371Z,1.60
2022-09-07T07:35:19.985Z,1.08
2022-09-07T07:42:05.858Z,1.27
2022-09-07T07:48:44.212Z,1.08
2022-09-07T07:55:44.721Z,1.40
2022-09-07T07:58:56.286Z,1.10
2022-09-07T08:02:05.899Z,1.45
2022-09-07T08:05:14.524Z,1.30
2022-09-07T08:08:31.547Z,1.67
2022-09-07T08:11:47.853Z,1.10
2022-09-07T08:14:58.310Z,1.20
2022-09-07T08:25:37.949Z,1.55
2022-09-07T08:28:58.995Z,1.30
2022-09-07T08:32:16.055Z,1.23
2022-09-07T08:36:12.948Z,1.25
2022-09-07T08:43:31.349Z,2.30
2022-09-07T08:50:42.521Z,1.30
2022-09-07T08:54:05.470Z,1.42
2022-09-07T08:57:27.999Z,1.35
2022-09-07T09:04:34.676Z,1.58
2022-09-07T09:08:16.741Z,1.38
2022-09-07T09:11:33.821Z,1.33
2022-09-07T09:14:57.890Z,1.10
2022-09-07T09:18:14.589Z,1.20
2022-09-07T09:21:26.373Z,1.20
2022-09-07T09:24:38.318Z,1.40
2022-09-07T09:27:50.007Z,1.23
2022-09-07T09:31:04.131Z,1.30
2022-09-07T09:34:25.467Z,1.20
2022-09-07T09:37:49.832Z,1.35
2022-09-07T09:41:01.130Z,1.10
2022-09-07T09:44:10.142Z,1.20
2022-09-07T09:47:30.358Z,1.52
2022-09-07T10:05:51.090Z,1.35
2022-09-07T10:09:02.592Z,1.40
2022-09-07T10:12:23.588Z,1.88
2022-09-07T10:15:41.420Z,1.30
2022-09-07T10:19:05.258Z,1.70
2022-09-07T10:22:42.780Z,1.55
2022-09-07T10:25:50.511Z,1.40
2022-09-07T10:29:17.413Z,1.58
2022-09-07T10:32:49.569Z,1.20
2022-09-07T10:36:14.328Z,1.48
2022-09-07T10:39:34.743Z,1.23
2022-09-07T10:47:02.555Z,2.15
2022-09-07T10:50:27.669Z,1.30
2022-09-07T10:53:43.096Z,1.20
2022-09-07T10:57:05.368Z,1.25
2022-09-07T11:00:19.215Z,1.70
2022-09-07T11:03:49.209Z,1.63
2022-09-07T11:07:06.047Z,1.35
2022-09-07T11:10:24.571Z,1.23
2022-09-07T11:14:09.037Z,1.00
2022-09-07T11:17:28.662Z,1.25
2022-09-07T11:20:51.501Z,1.23
2022-09-07T11:24:12.672Z,1.15
2022-09-07T11:27:31.066Z,1.25
2022-09-07T11:30:50.911Z,1.00
2022-09-07T11:37:45.005Z,1.15
2022-09-07T11:41:12.321Z,1.33
2022-09-07T11:44:39.983Z,1.20
2022-09-07T11:47:58.486Z,1.10
2022-09-07T11:51:17.222Z,1.13
2022-09-07T11:54:36.167Z,1.10
2022-09-07T11:58:08.013Z,1.42
2022-09-07T12:01:30.788Z,1.23
2022-09-07T12:04:57.507Z,1.40
2022-09-07T12:08:22.111Z,1.25
2022-09-07T12:12:07.213Z,0.98
2022-09-07T12:15:27.984Z,1.00
2022-09-07T12:19:00.927Z,0.82
2022-09-07T12:22:22.783Z,1.25
2022-09-07T12:25:32.143Z,0.90
2022-09-07T12:29:26.583Z,1.23
2022-09-07T12:33:24.781Z,0.98
2022-09-07T12:37:12.167Z,1.17
2022-09-07T12:44:29.332Z,0.88
2022-09-07T12:47:34.645Z,1.00
2022-09-07T12:51:02.233Z,1.05
2022-09-07T12:54:19.480Z,0.90
2022-09-07T12:57:35.273Z,1.02
2022-09-07T13:00:57.989Z,1.05
2022-09-07T13:08:57.674Z,1.10
2022-09-07T13:12:57.551Z,0.90
2022-09-07T13:25:14.854Z,0.77
2022-09-07T13:29:24.093Z,1.13
2022-09-07T13:50:52.779Z,0.80
2022-09-07T13:54:35.244Z,1.00
2022-09-07T14:02:32.240Z,0.93
2022-09-07T14:10:06.120Z,0.90
2022-09-07T14:23:08.782Z,1.00
2022-09-07T14:30:35.104Z,0.80
2022-09-07T14:34:10.465Z,0.90
2022-09-07T14:37:46.922Z,0.93
2022-09-07T14:49:00.121Z,0.80
2022-09-07T14:56:50.171Z,0.93
2022-09-07T15:04:55.132Z,1.05
2022-09-07T15:12:17.604Z,0.80
2022-09-07T15:16:00.791Z,0.90
2022-09-07T15:19:45.257Z,1.17
2022-09-07T15:23:20.793Z,1.00
2022-09-07T15:27:04.949Z,0.90
2022-09-07T15:34:11.792Z,0.88
2022-09-07T15:49:12.507Z,1.00
2022-09-07T15:52:19.138Z,1.23
2022-09-07T15:55:30.374Z,1.25
2022-09-07T15:58:45.342Z,1.08
2022-09-07T16:01:58.244Z,0.90
2022-09-07T16:05:08.243Z,0.95
2022-09-07T16:08:25.128Z,0.85
2022-09-07T16:11:31.335Z,1.08
2022-09-07T16:14:43.898Z,0.90
2022-09-07T16:17:53.869Z,1.13
2022-09-07T16:21:05.742Z,0.90
2022-09-07T16:24:13.217Z,1.10
2022-09-07T16:27:19.063Z,0.88
2022-09-07T16:30:25.882Z,1.05
2022-09-07T16:33:37.354Z,0.90
2022-09-07T16:36:45.171Z,1.20
2022-09-07T16:39:53.040Z,1.00
2022-09-07T16:43:18.258Z,0.98
2022-09-07T16:46:29.636Z,1.10
2022-09-07T16:49:39.461Z,1.35
2022-09-07T16:53:10.735Z,1.05
2022-09-07T17:00:13.051Z,1.08
2022-09-07T17:03:43.234Z,1.10
2022-09-07T17:07:13.735Z,1.10
2022-09-07T17:10:24.521Z,0.98
2022-09-07T17:13:42.451Z,0.70
2022-09-07T17:17:07.669Z,1.25
2022-09-07T17:20:34.021Z,1.17
2022-09-07T17:23:55.122Z,0.93
2022-09-07T17:27:06.176Z,1.05
2022-09-07T17:30:14.247Z,1.20
2022-09-07T17:33:21.768Z,1.13
2022-09-07T17:36:34.491Z,1.00
2022-09-07T17:39:50.859Z,1.00
2022-09-07T17:46:24.516Z,1.27
2022-09-07T17:49:32.252Z,1.00
2022-09-07T17:52:41.163Z,1.00
2022-09-07T17:55:57.077Z,1.17
2022-09-07T18:02:32.427Z,0.93
2022-09-07T18:05:42.714Z,0.73
2022-09-07T18:08:52.367Z,1.40
2022-09-07T18:12:01.181Z,0.47
2022-09-07T18:15:10.472Z,1.30
2022-09-07T18:18:17.095Z,0.85
2022-09-07T18:21:26.741Z,0.88
2022-09-07T18:24:39.148Z,0.82
2022-09-07T18:29:03.333Z,0.93
2022-09-07T18:31:18.754Z,1.20
2022-09-07T18:34:25.778Z,0.73
2022-09-07T18:37:36.351Z,0.80
2022-09-07T18:40:47.714Z,1.00
2022-09-07T18:45:26.656Z,0.82
2022-09-07T18:47:37.674Z,0.60
2022-09-07T18:50:57.589Z,0.77
2022-09-07T18:54:07.391Z,0.95
2022-09-07T18:57:15.419Z,0.98
2022-09-07T19:00:27.719Z,0.65
2022-09-07T19:03:40.651Z,1.05
2022-09-07T19:06:50.291Z,0.82
2022-09-07T19:10:06.937Z,0.77
2022-09-07T19:13:17.509Z,0.77
2022-09-07T19:19:58.696Z,1.10
2022-09-07T19:23:12.621Z,0.93
2022-09-07T19:26:22.371Z,0.80
2022-09-07T19:29:31.203Z,1.08
2022-09-07T19:32:49.531Z,0.70
2022-09-07T19:36:02.705Z,0.70
2022-09-07T19:39:22.267Z,1.00
2022-09-07T19:42:28.424Z,0.80
2022-09-07T19:45:35.796Z,1.00
2022-09-07T19:48:46.618Z,1.08
2022-09-07T19:51:59.202Z,0.80
2022-09-07T19:55:04.384Z,0.95
2022-09-07T19:58:10.163Z,0.90
2022-09-07T20:01:19.443Z,0.88
2022-09-07T20:04:29.716Z,0.90
2022-09-07T20:07:44.257Z,0.90
2022-09-07T20:10:57.085Z,0.60
2022-09-07T20:14:24.624Z,0.75
2022-09-07T20:17:39.008Z,0.80
2022-09-07T20:20:58.157Z,0.88
2022-09-07T20:27:36.671Z,0.80
2022-09-07T20:30:45.464Z,0.80
2022-09-07T20:33:54.474Z,0.90
2022-09-07T20:37:06.439Z,0.80
2022-09-07T20:40:17.354Z,0.95
2022-09-07T20:43:26.807Z,1.15
2022-09-07T20:46:33.825Z,1.20
2022-09-07T20:49:47.929Z,0.95
2022-09-07T20:52:56.401Z,0.90
2022-09-07T20:56:03.536Z,0.60
2022-09-07T20:59:08.456Z,0.85
2022-09-07T21:02:13.592Z,0.90
2022-09-07T21:05:17.977Z,0.82
2022-09-07T21:08:24.338Z,0.93
2022-09-07T21:11:32.264Z,0.98
2022-09-07T21:14:36.667Z,0.80
2022-09-07T21:17:45.563Z,0.85
2022-09-07T21:21:18.872Z,0.93
2022-09-07T21:24:25.516Z,0.70
2022-09-07T21:27:34.068Z,0.80
2022-09-07T21:30:41.967Z,1.23
2022-09-07T21:33:48.725Z,0.85
2022-09-07T21:36:54.608Z,0.80
2022-09-07T21:40:04.629Z,0.88
2022-09-07T21:43:09.898Z,1.13
2022-09-07T21:46:16.833Z,0.75
2022-09-07T21:49:32.469Z,0.68
2022-09-07T21:52:48.469Z,0.75
2022-09-07T21:56:11.317Z,0.70
2022-09-07T21:59:23.474Z,0.93
2022-09-07T22:02:33.382Z,0.90
2022-09-07T22:05:40.526Z,0.88
2022-09-07T22:09:06.394Z,0.93
2022-09-07T22:12:28.605Z,0.80
2022-09-07T22:15:38.141Z,0.80
2022-09-07T22:18:46.240Z,0.70
2022-09-07T22:21:50.647Z,0.80
2022-09-07T22:24:55.030Z,0.85
2022-09-07T22:28:01.159Z,1.05
2022-09-07T22:31:14.440Z,0.95
2022-09-07T22:34:19.028Z,1.10
2022-09-07T22:37:25.431Z,1.00
2022-09-07T22:40:31.165Z,1.00
2022-09-07T22:43:37.777Z,0.82
2022-09-07T22:46:45.503Z,1.00
2022-09-07T22:49:51.389Z,1.00
2022-09-07T22:52:57.505Z,0.82
2022-09-07T22:56:07.600Z,0.95
2022-09-07T22:59:14.741Z,0.90
2022-09-07T23:02:19.047Z,1.00
2022-09-07T23:05:26.074Z,0.80
2022-09-07T23:08:34.978Z,0.93
2022-09-07T23:11:53.566Z,1.48
2022-09-07T23:15:00.529Z,1.00
2022-09-07T23:18:08.304Z,0.90
2022-09-07T23:21:16.407Z,0.93
2022-09-07T23:24:23.210Z,0.82
2022-09-07T23:27:35.174Z,0.88
2022-09-07T23:30:45.728Z,0.90
2022-09-07T23:33:55.939Z,1.17
2022-09-07T23:37:13.821Z,1.10
2022-09-07T23:40:22.148Z,1.17
2022-09-07T23:43:27.367Z,1.10
2022-09-07T23:46:33.911Z,1.15
2022-09-07T23:49:36.617Z,1.30
2022-09-07T23:52:39.273Z,1.30
2022-09-07T23:55:42.616Z,1.00
2022-09-07T23:58:45.299Z,1.35
